Terminal Aerodrome Forecast
Issued by NWS North Platte, NE

Home | Current Version | Previous Version | Text Only | Print | Product List | Glossary Off
Versions: 1 2 3 4 5 6 7 8 9 10 11 12 13 14 15 16 17 18

000
FTUS43 KLBF 310723 AAA
TAFVTN
TAF AMD
KVTN 310723Z 3107/0106 20012KT P6SM SCT200
     FM311400 28012KT P6SM SCT150 BKN200
     FM311700 33014G20KT P6SM BKN150
     FM312200 01010KT P6SM BKN120
     FM010200 VRB06KT P6SM BKN120=

USA.gov is the U.S. government's official web portal to all federal, state and local government web resources and services.